Ana Sayfa
METAR-TAF:

METAR-TAF

Havaalanları :

Ebu Simbel, Mısır

Enlem: 22-22-33N, Boylam: 31-36-42E, yükseklik: 188 m

Güncel hava durumu gözlemi

Rapor saat 22:00 UTC de 44 dakika önce yapıldı.
Rüzgar kuzey/kuzeybatıdan 7 kt
Sıcaklık 35°C
Nem 20%
Basınç 1006 hPa
Görüş mesafesi 10 km veya daha fazla
1500 m altında bulut yok ve kümülonimbus yok

METAR: HEBL 202200Z 33007KT CAVOK 35/09 Q1006 NOSIG

Saat: 00:44 (22:44 UTC)

Tahmin

Rapor saat 17:00 UTC de 5 saat ve 44 dakika önce yapıldı.
Ayın 20'si saat 18 UTC'den ayın 21'si saat 24 UTC'ye kadar geçerli Tahmin
Rüzgar kuzey/kuzeybatıdan 10 kt
Görüş mesafesi 10 km veya daha fazla
1500 m altında bulut yok ve kümülonimbus yok

TAF: HEBL 201700Z 2018/2124 33010KT CAVOK

4.000'den fazla havaalanı için hava durumu gözlemleri ve tahminleri (METAR ve TAF raporları).

Kullanılabilir istasyonlar harita üzerinde sarı ve kırmızı noktalarla gösterilir.

İstasyonun adını görmek için fareyi noktanın üzerinde gezdirin.

Sonrasında hava gözlem ve tahminlerini görmek için tıklayın.

Haritayı değiştirmek için: yaklaştırmak için siyah artı işaretli yeşil düğmeye ve uzaklaştırmak için de eksi işaretli düğmeye hızla tıklayın; bitişik haritalar için yeşil okları kullanın.


METAR-TAF: